Time;durP1;ratioP1;P1;durP2;ratioP2;P2;SDS_P1;SDS_P2;PMS_P1;PMS_P2;Temp;Humidity;BMP_temperature;BMP_pressure;BME280_temperature;BME280_humidity;BME280_pressure;Samples;Min_cycle;Max_cycle;Signal;HPM_P1;HPM_P2
2021/11/23 00:00:39;;;;;;;;;;;3.30;99.90;;;1.95;100.00;96361.09;10463682;28;1968;-78
2021/11/23 00:05:43;;;;;;;;;;;3.30;99.90;;;1.89;100.00;96364.56;10443940;28;1926;-78
2021/11/23 00:10:46;;;;;;;;;;;3.20;99.90;;;1.86;100.00;96370.28;10461842;28;2017;-77
2021/11/23 00:15:48;;;;;;;;;;;3.20;99.90;;;1.81;100.00;96367.44;10466648;28;1826;-78
2021/11/23 00:20:51;;;;;;;;;;;3.10;99.90;;;1.80;100.00;96371.09;10467864;28;1914;-75
2021/11/23 00:25:54;;;;;;;;;;;3.10;99.90;;;1.74;100.00;96370.06;10457838;28;1817;-78
2021/11/23 00:30:57;;;;;;;;;;;3.10;99.90;;;1.70;100.00;96373.31;10469916;28;1876;-76
2021/11/23 00:36:01;;;;;;;;;;;3.10;99.90;;;1.69;100.00;96379.66;10467083;28;1908;-78
2021/11/23 00:41:03;;;;;;;;;;;3.00;99.90;;;1.61;100.00;96376.19;10458746;28;1944;-77
2021/11/23 00:46:06;;;;;;;;;;;2.90;99.90;;;1.53;100.00;96372.94;10452919;28;1869;-77
2021/11/23 00:51:09;;;;;;;;;;;2.90;99.90;;;1.58;100.00;96381.88;10451154;28;1953;-77
2021/11/23 00:56:12;;;;;;;;;;;2.90;99.90;;;1.49;100.00;96384.94;10452131;28;1798;-77
2021/11/23 01:01:15;;;;;;;;;;;2.90;99.90;;;1.46;100.00;96385.31;10470645;28;2001;-78
2021/11/23 01:06:18;;;;;;;;;;;2.80;99.90;;;1.49;100.00;96396.34;10450742;28;1915;-78
2021/11/23 01:11:21;;;;;;;;;;;2.80;99.90;;;1.44;100.00;96400.59;10468071;28;1913;-78
2021/11/23 01:16:24;;;;;;;;;;;2.80;99.90;;;1.28;100.00;96388.56;10459999;28;1858;-78
2021/11/23 01:21:27;;;;;;;;;;;2.70;99.90;;;1.30;100.00;96405.06;10463836;28;1918;-77
2021/11/23 01:26:30;;;;;;;;;;;2.60;99.90;;;1.24;100.00;96408.50;10440063;28;1886;-78
2021/11/23 01:31:33;;;;;;;;;;;2.50;99.90;;;1.24;100.00;96408.50;10463583;28;1983;-77
2021/11/23 01:36:36;;;;;;;;;;;2.50;99.90;;;1.23;100.00;96412.19;10442421;28;1858;-78
2021/11/23 01:41:38;;;;;;;;;;;2.50;99.90;;;1.10;100.00;96407.66;10470245;28;1914;-77
2021/11/23 01:46:41;;;;;;;;;;;2.50;99.90;;;0.94;100.00;96408.00;10460448;28;1835;-77
2021/11/23 01:51:44;;;;;;;;;;;2.10;99.90;;;0.98;100.00;96412.69;10454993;28;1904;-77
2021/11/23 01:56:47;;;;;;;;;;;2.10;99.90;;;0.95;100.00;96401.69;10434704;28;2106;-76
2021/11/23 02:01:50;;;;;;;;;;;2.00;99.90;;;0.92;100.00;96404.72;10457170;28;1983;-77
2021/11/23 02:06:53;;;;;;;;;;;2.10;99.90;;;1.01;100.00;96407.00;10467124;28;2019;-77
2021/11/23 02:12:10;;;;;;;;;;;2.10;99.90;;;0.88;100.00;96412.25;10456620;28;1992;-77
2021/11/23 02:17:18;;;;;;;;;;;2.00;99.90;;;0.92;100.00;96416.13;10462896;28;1991;-77
2021/11/23 02:22:35;;;;;;;;;;;2.00;99.90;;;0.85;100.00;96420.59;10487484;28;1923;-77
2021/11/23 02:27:38;;;;;;;;;;;2.00;99.90;;;0.88;100.00;96417.53;10450004;28;2201;-77
2021/11/23 02:33:01;;;;;;;;;;;1.90;99.90;;;0.78;100.00;96417.09;10450640;28;1976;-77
2021/11/23 02:38:24;;;;;;;;;;;1.90;99.90;;;0.84;100.00;96413.66;10447618;28;2237;-78
2021/11/23 02:43:26;;;;;;;;;;;1.90;99.90;;;0.88;100.00;96417.53;10456261;28;1980;-77
2021/11/23 02:48:29;;;;;;;;;;;1.90;99.90;;;0.82;100.00;96413.03;10460749;28;2059;-77
2021/11/23 02:53:32;;;;;;;;;;;1.90;99.90;;;0.80;100.00;96420.34;10463625;28;1984;-77
2021/11/23 02:58:35;;;;;;;;;;;1.80;99.90;;;0.87;100.00;96421.19;10461465;28;2006;-76
2021/11/23 03:03:38;;;;;;;;;;;1.90;99.90;;;0.84;100.00;96412.84;10467025;28;2001;-76
2021/11/23 03:08:41;;;;;;;;;;;1.90;99.90;;;0.83;100.00;96417.31;10453881;28;1957;-76
2021/11/23 03:13:44;;;;;;;;;;;1.90;99.90;;;0.90;100.00;96422.66;10437825;28;1885;-76
2021/11/23 03:18:46;;;;;;;;;;;1.90;99.90;;;0.83;100.00;96422.63;10453607;28;1979;-76
2021/11/23 03:23:49;;;;;;;;;;;1.90;99.90;;;0.72;100.00;96421.34;10433654;28;1980;-76
2021/11/23 03:28:52;;;;;;;;;;;1.80;99.90;;;0.79;100.00;96410.78;10451362;28;2112;-75
2021/11/23 03:33:55;;;;;;;;;;;1.80;99.90;;;0.76;100.00;96419.09;10452811;28;1886;-76
2021/11/23 03:38:58;;;;;;;;;;;1.90;99.90;;;0.61;100.00;96429.81;10452664;28;1973;-76
2021/11/23 03:44:01;;;;;;;;;;;1.80;99.90;;;0.58;100.00;96424.13;10472528;28;1922;-75
2021/11/23 03:49:04;;;;;;;;;;;1.70;99.90;;;0.59;100.00;96415.97;10474750;28;1926;-75
2021/11/23 03:54:09;;;;;;;;;;;1.70;99.90;;;0.48;100.00;96414.69;10457261;28;2013;-75
2021/11/23 03:59:12;;;;;;;;;;;1.60;99.90;;;0.48;100.00;96419.97;10461138;28;2042;-75
2021/11/23 04:04:15;;;;;;;;;;;1.60;99.90;;;0.35;100.00;96413.78;10452855;28;1948;-76
2021/11/23 04:09:18;;;;;;;;;;;1.60;99.90;;;0.14;100.00;96422.59;10473571;28;1977;-76
2021/11/23 04:14:21;;;;;;;;;;;1.40;99.90;;;0.28;100.00;96432.25;10465272;28;1917;-76
2021/11/23 04:19:44;;;;;;;;;;;1.30;99.90;;;-0.02;100.00;96419.22;10474786;28;1961;-76
2021/11/23 04:25:06;;;;;;;;;;;1.30;99.90;;;-0.17;100.00;96429.06;10461150;28;1886;-76
2021/11/23 04:30:10;;;;;;;;;;;1.10;99.90;;;-0.29;100.00;96433.22;10481133;28;1951;-75
2021/11/23 04:35:13;;;;;;;;;;;0.90;99.90;;;-0.34;100.00;96431.13;10448697;28;1858;-77
2021/11/23 04:40:16;;;;;;;;;;;0.80;99.90;;;-0.31;100.00;96437.88;10454258;28;1967;-76
2021/11/23 04:45:19;;;;;;;;;;;0.80;99.90;;;-0.45;100.00;96444.84;10454573;28;1912;-75
2021/11/23 04:50:22;;;;;;;;;;;0.80;99.90;;;-0.47;100.00;96436.28;10462681;28;1959;-75
2021/11/23 04:55:25;;;;;;;;;;;0.70;99.90;;;-0.57;100.00;96436.63;10455897;28;1733;-75
2021/11/23 05:00:27;;;;;;;;;;;0.70;99.90;;;-0.45;100.00;96451.94;10463175;28;1993;-76
2021/11/23 05:05:30;;;;;;;;;;;0.70;99.90;;;-0.49;100.00;96464.72;10444507;28;1965;-75
2021/11/23 05:10:33;;;;;;;;;;;0.60;99.90;;;-0.51;100.00;96476.47;10444924;28;1957;-75
2021/11/23 05:15:36;;;;;;;;;;;0.60;99.90;;;-0.50;100.00;96475.50;10464387;28;1913;-76
2021/11/23 05:20:40;;;;;;;;;;;0.50;99.90;;;-0.48;100.00;96473.47;10453748;28;2111;-75
2021/11/23 05:25:43;;;;;;;;;;;0.60;99.90;;;-0.41;100.00;96471.72;10444788;28;2108;-75
2021/11/23 05:30:46;;;;;;;;;;;0.60;99.90;;;-0.37;100.00;96486.19;10461302;28;2074;-75
2021/11/23 05:35:50;;;;;;;;;;;0.70;99.90;;;-0.30;100.00;96489.72;10467111;28;1952;-75
2021/11/23 05:40:53;;;;;;;;;;;0.80;99.90;;;-0.31;100.00;96482.81;10472412;28;1964;-76
2021/11/23 05:45:56;;;;;;;;;;;0.70;99.90;;;-0.12;100.00;96470.78;10458158;28;1930;-76
2021/11/23 05:51:03;;;;;;;;;;;1.00;99.90;;;-0.05;100.00;96477.75;10443529;28;1957;-76
2021/11/23 05:56:06;;;;;;;;;;;1.10;99.90;;;0.02;100.00;96477.00;10446964;28;1417;-76
2021/11/23 06:01:09;;;;;;;;;;;1.00;99.90;;;-0.08;100.00;96482.59;10457768;28;1983;-76
2021/11/23 06:06:13;;;;;;;;;;;1.00;99.90;;;-0.16;100.00;96480.91;10449464;28;2144;-75
2021/11/23 06:11:16;;;;;;;;;;;0.90;99.90;;;-0.17;100.00;96489.84;10458864;28;1919;-75
2021/11/23 06:16:18;;;;;;;;;;;0.90;99.90;;;0.03;100.00;96489.22;10450713;28;2095;-75
2021/11/23 06:21:21;;;;;;;;;;;1.00;99.90;;;0.07;100.00;96495.75;10455455;28;1929;-75
2021/11/23 06:26:24;;;;;;;;;;;1.00;99.90;;;0.06;100.00;96491.47;10461220;28;1866;-76
2021/11/23 06:31:27;;;;;;;;;;;1.10;99.90;;;-0.13;100.00;96506.13;10450009;28;1931;-75
2021/11/23 06:36:30;;;;;;;;;;;1.00;99.90;;;-0.12;100.00;96507.78;10427316;28;2025;-76
2021/11/23 06:41:33;;;;;;;;;;;0.90;99.90;;;-0.29;100.00;96523.06;10446378;28;1913;-77
2021/11/23 06:46:36;;;;;;;;;;;0.90;99.90;;;-0.28;100.00;96527.31;10443662;28;1972;-72
2021/11/23 06:51:39;;;;;;;;;;;0.80;99.90;;;-0.31;100.00;96535.63;10429148;28;2095;-76
2021/11/23 06:56:42;;;;;;;;;;;0.80;99.90;;;-0.28;100.00;96540.53;10450443;28;1386;-78
2021/11/23 07:01:45;;;;;;;;;;;0.80;99.90;;;-0.26;100.00;96549.09;10443366;28;1922;-76
2021/11/23 07:06:48;;;;;;;;;;;0.80;99.90;;;-0.05;100.00;96566.81;10429142;28;1783;-70
2021/11/23 07:11:52;;;;;;;;;;;0.90;99.90;;;0.07;100.00;96560.03;10447395;28;1866;-70
2021/11/23 07:16:55;;;;;;;;;;;1.00;99.90;;;0.12;100.00;96568.19;10459872;28;2028;-75
2021/11/23 07:21:58;;;;;;;;;;;1.10;99.90;;;0.13;100.00;96575.13;10466529;28;2016;-75
2021/11/23 07:27:02;;;;;;;;;;;1.10;99.90;;;0.24;100.00;96576.44;10448961;28;1913;-74
2021/11/23 07:32:05;;;;;;;;;;;1.30;99.90;;;0.27;100.00;96570.78;10453468;28;1926;-75
2021/11/23 07:37:08;;;;;;;;;;;1.30;99.90;;;0.26;100.00;96569.16;10449881;28;1929;-75
2021/11/23 07:42:11;;;;;;;;;;;1.30;99.90;;;0.34;100.00;96570.84;10445375;28;2082;-75
2021/11/23 07:47:14;;;;;;;;;;;1.30;99.90;;;0.34;100.00;96573.50;10452602;28;1937;-73
2021/11/23 07:52:16;;;;;;;;;;;1.30;99.90;;;0.61;100.00;96577.16;10457163;28;2100;-75
2021/11/23 07:57:19;;;;;;;;;;;1.50;99.90;;;0.44;100.00;96572.13;10461315;28;1928;-73
2021/11/23 08:02:22;;;;;;;;;;;1.50;99.90;;;0.44;100.00;96577.44;10456696;28;1929;-73
2021/11/23 08:07:28;;;;;;;;;;;1.60;99.90;;;0.70;100.00;96582.16;10439972;28;2013;-73
2021/11/23 08:12:31;;;;;;;;;;;1.60;99.90;;;0.78;100.00;96573.25;10450613;28;1917;-76
2021/11/23 08:17:33;;;;;;;;;;;1.70;99.90;;;0.79;100.00;96582.81;10448718;28;1949;-73
2021/11/23 08:22:36;;;;;;;;;;;1.80;99.90;;;1.08;100.00;96582.63;10451434;28;1925;-72
2021/11/23 08:27:39;;;;;;;;;;;2.00;99.90;;;1.07;100.00;96588.91;10445396;28;1989;-74
2021/11/23 08:32:42;;;;;;;;;;;2.00;99.90;;;1.12;100.00;96584.88;10441487;28;1997;-72
2021/11/23 08:37:45;;;;;;;;;;;2.20;99.90;;;1.10;100.00;96584.25;10434273;28;2075;-72
2021/11/23 08:42:50;;;;;;;;;;;2.20;99.90;;;1.32;100.00;96585.78;10437518;28;1914;-73
2021/11/23 08:47:54;;;;;;;;;;;2.20;99.90;;;1.39;100.00;96591.13;10423856;28;1944;-73
2021/11/23 08:52:58;;;;;;;;;;;2.40;99.90;;;1.31;100.00;96594.75;10439559;28;1947;-73
2021/11/23 08:58:01;;;;;;;;;;;2.50;99.90;;;1.46;100.00;96590.13;10439378;28;1941;-75
2021/11/23 09:03:04;;;;;;;;;;;2.40;99.90;;;1.22;100.00;96590.63;10446679;28;1975;-72
2021/11/23 09:08:07;;;;;;;;;;;2.30;99.90;;;0.85;100.00;96605.88;10452067;28;1993;-73
2021/11/23 09:13:10;;;;;;;;;;;2.20;99.90;;;0.79;100.00;96609.28;10466916;28;1890;-75
2021/11/23 09:18:13;;;;;;;;;;;1.90;99.90;;;0.80;100.00;96613.56;10457002;28;2079;-74
2021/11/23 09:23:16;;;;;;;;;;;1.90;99.90;;;1.07;100.00;96614.56;10447663;28;2027;-71
2021/11/23 09:28:19;;;;;;;;;;;1.90;99.90;;;1.35;100.00;96612.72;10451121;28;1941;-71
2021/11/23 09:33:22;;;;;;;;;;;2.20;99.90;;;1.39;100.00;96614.97;10442509;28;1390;-71
2021/11/23 09:38:25;;;;;;;;;;;2.30;99.90;;;1.68;100.00;96611.25;10451552;28;1559;-71
2021/11/23 09:43:28;;;;;;;;;;;2.50;99.90;;;2.08;100.00;96617.50;10446861;28;2342;-72
2021/11/23 09:48:31;;;;;;;;;;;2.80;99.90;;;2.26;100.00;96611.66;10442527;28;2044;-71
2021/11/23 09:53:34;;;;;;;;;;;3.10;99.90;;;1.85;100.00;96615.22;10457525;28;1965;-70
2021/11/23 09:58:37;;;;;;;;;;;3.00;99.90;;;1.96;100.00;96606.66;10455740;28;2048;-71
2021/11/23 10:03:40;;;;;;;;;;;3.00;99.90;;;2.13;100.00;96610.59;10448512;28;1921;-71
2021/11/23 10:08:43;;;;;;;;;;;3.10;99.90;;;2.33;100.00;96609.81;10450970;28;2008;-71
2021/11/23 10:13:46;;;;;;;;;;;3.30;99.90;;;2.61;100.00;96607.03;10454396;28;1835;-72
2021/11/23 10:18:49;;;;;;;;;;;3.30;99.90;;;2.72;97.90;96607.22;10454236;28;1910;-75
2021/11/23 10:23:55;;;;;;;;;;;3.60;99.90;;;2.69;98.91;96593.56;10445787;28;1973;-71
2021/11/23 10:28:59;;;;;;;;;;;3.60;99.90;;;2.79;97.32;96585.16;10454859;28;1465;-71
2021/11/23 10:34:02;;;;;;;;;;;3.60;99.90;;;2.67;98.09;96588.44;10439383;28;1249;-72
2021/11/23 10:39:04;;;;;;;;;;;3.60;99.90;;;2.32;97.75;96597.59;10443445;28;1478;-71
2021/11/23 10:44:07;;;;;;;;;;;3.60;99.90;;;2.36;99.80;96593.53;10464956;28;1967;-72
2021/11/23 10:49:10;;;;;;;;;;;3.30;99.90;;;2.56;98.80;96593.53;10440425;28;1994;-71
2021/11/23 10:54:13;;;;;;;;;;;3.40;99.90;;;2.32;100.00;96586.97;10443907;28;1969;-71
2021/11/23 10:59:16;;;;;;;;;;;3.40;99.90;;;2.32;100.00;96586.97;10448048;28;1881;-71
2021/11/23 11:04:19;;;;;;;;;;;3.30;99.90;;;2.31;100.00;96582.69;10451323;28;1980;-71
2021/11/23 11:09:22;;;;;;;;;;;3.30;99.90;;;2.61;99.95;96572.53;10450346;28;1886;-71
2021/11/23 11:14:24;;;;;;;;;;;3.50;99.90;;;2.77;98.75;96573.94;10457684;28;1858;-72
2021/11/23 11:19:27;;;;;;;;;;;3.60;99.90;;;2.92;96.67;96566.56;10456829;28;1978;-72
2021/11/23 11:24:33;;;;;;;;;;;3.80;99.90;;;3.43;94.79;96557.88;10448393;28;1973;-71
2021/11/23 11:29:36;;;;;;;;;;;4.10;99.90;;;3.31;95.15;96560.38;10449003;28;2083;-73
2021/11/23 11:34:39;;;;;;;;;;;4.30;99.90;;;3.34;94.79;96556.50;10446107;28;1859;-71
2021/11/23 11:39:42;;;;;;;;;;;4.30;99.90;;;3.26;95.91;96557.53;10449660;28;1912;-72
2021/11/23 11:44:47;;;;;;;;;;;4.30;99.90;;;3.90;92.68;96546.03;10457380;28;1950;-72
2021/11/23 11:49:50;;;;;;;;;;;4.50;99.90;;;3.85;91.34;96545.84;10442102;28;1933;-71
2021/11/23 11:54:53;;;;;;;;;;;4.80;99.90;;;3.74;92.08;96536.69;10455821;28;1875;-76
2021/11/23 11:59:56;;;;;;;;;;;4.90;99.90;;;3.52;93.51;96538.03;10432212;28;1980;-74
2021/11/23 12:04:59;;;;;;;;;;;4.60;99.90;;;3.49;92.45;96535.78;10451746;28;2378;-74
2021/11/23 12:10:02;;;;;;;;;;;4.60;99.90;;;3.40;93.24;96542.38;10468692;28;1964;-74
2021/11/23 12:15:08;;;;;;;;;;;4.50;99.90;;;3.27;94.10;96542.41;10449654;28;1930;-74
2021/11/23 12:20:12;;;;;;;;;;;4.30;99.90;;;3.46;93.62;96539.69;10447244;28;1906;-74
2021/11/23 12:25:18;;;;;;;;;;;4.40;99.90;;;3.33;94.02;96541.56;10451439;28;2134;-75
2021/11/23 12:30:21;;;;;;;;;;;4.40;99.90;;;3.14;94.62;96536.09;10463095;28;1951;-73
2021/11/23 12:35:24;;;;;;;;;;;4.40;99.90;;;3.08;94.96;96534.28;10429838;28;1913;-74
2021/11/23 12:40:27;;;;;;;;;;;4.30;99.90;;;3.08;94.96;96528.97;10447849;28;1888;-74
2021/11/23 12:45:30;;;;;;;;;;;4.10;99.90;;;3.28;93.29;96536.06;10445313;28;1985;-76
2021/11/23 12:50:33;;;;;;;;;;;4.30;99.90;;;3.34;94.43;96527.25;10453000;28;1921;-76
2021/11/23 12:55:36;;;;;;;;;;;4.30;99.90;;;3.54;93.07;96533.31;10464117;28;1932;-74
2021/11/23 13:00:39;;;;;;;;;;;4.40;99.90;;;3.40;92.67;96526.41;10453318;28;1893;-74
2021/11/23 13:05:43;;;;;;;;;;;4.40;99.90;;;3.53;92.90;96524.53;10446813;28;1975;-74
2021/11/23 13:10:46;;;;;;;;;;;4.50;99.90;;;3.32;93.28;96519.50;10450916;28;1890;-74
2021/11/23 13:15:49;;;;;;;;;;;4.50;99.90;;;3.47;94.39;96519.22;10458103;28;2252;-75
2021/11/23 13:20:54;;;;;;;;;;;4.40;99.90;;;3.51;94.24;96517.78;10462854;28;1854;-76
2021/11/23 13:25:57;;;;;;;;;;;;;;;3.79;93.48;96510.28;10453144;28;1985;-71
2021/11/23 13:31:00;;;;;;;;;;;4.70;99.90;;;3.96;92.62;96512.47;10466702;28;1897;-70
2021/11/23 13:36:03;;;;;;;;;;;4.90;99.90;;;4.15;90.10;96513.38;10463130;28;1933;-71
2021/11/23 13:41:07;;;;;;;;;;;6.90;99.90;;;4.09;90.13;96512.38;10460577;28;1819;-75
2021/11/23 13:46:10;;;;;;;;;;;5.20;99.90;;;4.16;90.02;96507.81;10456884;28;1964;-74
2021/11/23 13:51:13;;;;;;;;;;;5.20;99.90;;;4.36;88.51;96514.84;10442666;28;1850;-76
2021/11/23 13:56:16;;;;;;;;;;;5.40;99.90;;;4.12;89.11;96506.63;10458860;28;1770;-73
2021/11/23 14:01:19;;;;;;;;;;;5.20;99.90;;;4.20;88.83;96510.84;10462642;28;1945;-75
2021/11/23 14:06:22;;;;;;;;;;;5.30;99.90;;;4.19;88.27;96503.91;10445860;28;1981;-75
2021/11/23 14:11:25;;;;;;;;;;;5.30;99.90;;;4.07;89.04;96506.44;10466220;28;1899;-74
2021/11/23 14:16:29;;;;;;;;;;;5.30;99.90;;;3.99;88.70;96510.16;10443197;28;1941;-75
2021/11/23 14:21:32;;;;;;;;;;;5.20;99.90;;;3.94;89.12;96502.00;10460546;28;1913;-75
2021/11/23 14:26:35;;;;;;;;;;;5.10;99.90;;;3.78;89.97;96508.66;10465656;28;1870;-76
2021/11/23 14:31:37;;;;;;;;;;;5.00;99.90;;;3.56;91.48;96498.53;10444935;28;1960;-75
2021/11/23 14:36:43;;;;;;;;;;;4.90;99.90;;;3.31;92.08;96499.28;10458525;28;1901;-75
2021/11/23 14:41:46;;;;;;;;;;;4.70;99.90;;;3.11;92.65;96499.31;10458502;28;2200;-75
2021/11/23 14:46:55;;;;;;;;;;;4.40;99.90;;;2.96;93.59;96504.88;10445269;28;1948;-75
2021/11/23 14:52:02;;;;;;;;;;;4.20;99.90;;;3.05;94.40;96508.09;10432675;28;1889;-72
2021/11/23 14:57:05;;;;;;;;;;;4.10;99.90;;;2.94;94.19;96512.25;10466840;28;1857;-71
2021/11/23 15:02:08;;;;;;;;;;;4.20;99.90;;;3.10;95.80;96512.81;10453017;28;1913;-72
2021/11/23 15:07:12;;;;;;;;;;;4.20;99.90;;;3.03;94.30;96510.16;10452180;28;1905;-71
2021/11/23 15:12:15;;;;;;;;;;;4.20;99.90;;;3.12;94.59;96514.25;10466734;28;1770;-71
2021/11/23 15:17:17;;;;;;;;;;;4.10;99.90;;;2.98;95.09;96507.31;10461134;28;1886;-75
2021/11/23 15:22:20;;;;;;;;;;;4.20;99.90;;;2.93;95.74;96517.75;10462183;28;1976;-74
2021/11/23 15:27:23;;;;;;;;;;;4.10;99.90;;;2.90;95.29;96528.78;10458602;28;1827;-74
2021/11/23 15:32:26;;;;;;;;;;;4.10;99.90;;;2.97;95.88;96521.63;10461723;28;1766;-76
2021/11/23 15:37:29;;;;;;;;;;;4.10;99.90;;;3.06;94.79;96525.69;10465018;28;1972;-75
2021/11/23 15:42:32;;;;;;;;;;;4.10;99.90;;;3.06;95.26;96523.03;10467952;28;1981;-74
2021/11/23 15:47:35;;;;;;;;;;;4.20;99.90;;;3.10;96.31;96532.22;10462469;28;1949;-74
2021/11/23 15:52:38;;;;;;;;;;;4.20;99.90;;;3.08;97.21;96539.59;10456490;28;1861;-74
2021/11/23 15:57:40;;;;;;;;;;;4.30;99.90;;;3.09;99.49;96533.25;10466976;28;1841;-74
2021/11/23 16:03:00;;;;;;;;;;;4.30;99.90;;;3.12;99.03;96529.38;10451514;28;1968;-74
2021/11/23 16:08:04;;;;;;;;;;;4.30;99.90;;;3.07;98.63;96532.66;10454600;28;1885;-74
2021/11/23 16:13:06;;;;;;;;;;;4.20;99.90;;;3.00;97.47;96536.34;10443122;28;1932;-75
2021/11/23 16:18:09;;;;;;;;;;;4.20;99.90;;;3.02;96.36;96535.09;10445956;28;1837;-75
2021/11/23 16:23:29;;;;;;;;;;;4.20;99.90;;;2.87;95.36;96537.19;10455616;28;1971;-74
2021/11/23 16:28:32;;;;;;;;;;;4.10;99.90;;;2.89;95.20;96538.59;10453657;28;1862;-74
2021/11/23 16:33:35;;;;;;;;;;;4.10;99.90;;;2.79;96.03;96537.38;10449766;28;1940;-74
2021/11/23 16:38:38;;;;;;;;;;;4.00;99.90;;;2.83;95.52;96542.06;10452111;28;1933;-74
2021/11/23 16:43:41;;;;;;;;;;;4.00;99.90;;;2.78;94.40;96556.97;10456165;28;1941;-74
2021/11/23 16:48:44;;;;;;;;;;;3.90;99.90;;;2.75;95.40;96560.06;10458046;28;1894;-74
2021/11/23 16:53:47;;;;;;;;;;;3.90;99.90;;;2.79;96.50;96553.31;10454238;28;1822;-75
2021/11/23 16:58:50;;;;;;;;;;;3.90;99.90;;;2.76;95.13;96562.50;10455465;28;1938;-75
2021/11/23 17:04:10;;;;;;;;;;;3.90;99.90;;;2.76;95.10;96561.69;10453447;28;1985;-74
2021/11/23 17:09:13;;;;;;;;;;;3.90;99.90;;;2.74;95.82;96558.44;10448693;28;1866;-74
2021/11/23 17:14:18;;;;;;;;;;;3.90;99.90;;;2.77;95.49;96558.00;10449463;28;1908;-74
2021/11/23 17:19:21;;;;;;;;;;;3.90;99.90;;;2.78;94.70;96549.00;10470876;28;1913;-73
2021/11/23 17:24:24;;;;;;;;;;;3.90;99.90;;;2.79;95.81;96542.69;10460785;28;1936;-75
2021/11/23 17:29:28;;;;;;;;;;;3.90;99.90;;;2.82;95.33;96556.38;10457232;28;1890;-74
2021/11/23 17:34:32;;;;;;;;;;;4.00;99.90;;;2.75;96.68;96560.06;10458600;28;2963;-74
2021/11/23 17:39:36;;;;;;;;;;;3.90;99.90;;;2.79;96.69;96555.97;10442613;28;1937;-74
2021/11/23 17:44:39;;;;;;;;;;;3.90;99.90;;;2.77;96.27;96552.69;10432676;28;1904;-75
2021/11/23 17:49:41;;;;;;;;;;;3.90;99.90;;;2.72;95.55;96540.84;10448622;28;1867;-75
2021/11/23 17:54:44;;;;;;;;;;;3.90;99.90;;;2.74;96.26;96539.84;10443396;28;1873;-75
2021/11/23 17:59:48;;;;;;;;;;;3.90;99.90;;;2.78;94.99;96546.38;10453575;28;2152;-74
2021/11/23 18:04:51;;;;;;;;;;;3.90;99.90;;;2.81;94.98;96548.63;10444625;28;1917;-74
2021/11/23 18:09:53;;;;;;;;;;;3.90;99.90;;;2.81;95.97;96541.47;10436472;28;1862;-73
2021/11/23 18:14:56;;;;;;;;;;;3.90;99.90;;;2.77;96.64;96531.47;10443910;28;1913;-74
2021/11/23 18:19:59;;;;;;;;;;;3.90;99.90;;;2.62;95.90;96535.16;10447546;28;1907;-74
2021/11/23 18:25:02;;;;;;;;;;;3.90;99.90;;;2.48;97.33;96538.00;10453694;28;1910;-74
2021/11/23 18:30:05;;;;;;;;;;;3.80;99.90;;;2.54;97.56;96527.38;10451208;28;1801;-73
2021/11/23 18:35:08;;;;;;;;;;;3.70;99.90;;;2.50;97.15;96536.78;10446986;28;1862;-73
2021/11/23 18:40:11;;;;;;;;;;;3.70;99.90;;;2.51;97.59;96527.78;10445470;28;1943;-74
2021/11/23 18:45:13;;;;;;;;;;;3.70;99.90;;;2.51;98.62;96527.78;10451781;28;1989;-73
2021/11/23 18:50:16;;;;;;;;;;;3.70;99.90;;;2.49;98.45;96524.53;10441430;28;1809;-73
2021/11/23 18:55:19;;;;;;;;;;;3.60;99.90;;;2.51;98.47;96526.97;10441360;28;1512;-74
2021/11/23 19:00:22;;;;;;;;;;;3.60;99.90;;;2.48;99.42;96522.88;10449826;28;1422;-74
2021/11/23 19:05:26;;;;;;;;;;;3.60;99.90;;;2.46;100.00;96519.63;10444265;28;2002;-75
2021/11/23 19:10:29;;;;;;;;;;;3.60;99.90;;;2.53;99.87;96515.13;10459689;28;1325;-71
2021/11/23 19:15:32;;;;;;;;;;;3.70;99.90;;;2.38;100.00;96522.50;10450156;28;1351;-71
2021/11/23 19:20:35;;;;;;;;;;;3.60;99.90;;;2.22;100.00;96523.69;10455323;28;1177;-74
2021/11/23 19:25:38;;;;;;;;;;;3.50;99.90;;;1.93;100.00;96524.88;10450150;28;1902;-72
2021/11/23 19:30:41;;;;;;;;;;;3.30;99.90;;;1.74;100.00;96520.34;10476895;28;1313;-73
2021/11/23 19:35:44;;;;;;;;;;;3.10;99.90;;;1.53;100.00;96527.41;10466904;28;1425;-74
2021/11/23 19:40:47;;;;;;;;;;;2.90;99.90;;;1.38;100.00;96526.72;10473543;28;1403;-74
2021/11/23 19:45:51;;;;;;;;;;;2.80;99.90;;;1.33;100.00;96529.16;10472233;28;1909;-75
2021/11/23 19:50:54;;;;;;;;;;;2.60;99.90;;;1.17;100.00;96526.84;10459506;28;1886;-74
2021/11/23 19:55:57;;;;;;;;;;;2.60;99.90;;;1.15;100.00;96516.47;10462632;28;1487;-72
2021/11/23 20:01:00;;;;;;;;;;;2.50;99.90;;;0.95;100.00;96521.63;10470450;28;1391;-73
2021/11/23 20:06:04;;;;;;;;;;;2.40;99.90;;;0.91;100.00;96523.03;10463418;28;1891;-73
2021/11/23 20:11:07;;;;;;;;;;;2.30;99.90;;;0.87;100.00;96526.25;10459944;28;1739;-72
2021/11/23 20:16:09;;;;;;;;;;;2.20;99.90;;;0.71;100.00;96519.44;10464512;28;1865;-74
2021/11/23 20:21:12;;;;;;;;;;;2.10;99.90;;;0.66;100.00;96516.56;10454009;28;1878;-74
2021/11/23 20:26:15;;;;;;;;;;;2.00;99.90;;;0.59;100.00;96513.88;10467949;28;1988;-73
2021/11/23 20:31:18;;;;;;;;;;;1.90;99.90;;;0.54;100.00;96503.84;10464527;28;1858;-73
2021/11/23 20:36:21;;;;;;;;;;;1.90;99.90;;;0.47;100.00;96513.56;10461799;28;1883;-74
2021/11/23 20:41:26;;;;;;;;;;;1.80;99.90;;;0.34;100.00;96508.19;10492071;28;1857;-72
2021/11/23 20:46:50;;;;;;;;;;;1.70;99.90;;;0.26;100.00;96511.78;10470123;28;1968;-73
2021/11/23 20:51:53;;;;;;;;;;;1.60;99.90;;;0.15;100.00;96512.31;10468215;28;1921;-74
2021/11/23 20:56:56;;;;;;;;;;;1.50;99.90;;;-0.01;100.00;96502.78;10465770;28;1772;-72
2021/11/23 21:02:01;;;;;;;;;;;1.40;99.90;;;-0.03;100.00;96507.44;10478223;28;1941;-73
2021/11/23 21:07:04;;;;;;;;;;;1.30;99.90;;;-0.09;100.00;96508.22;10467172;28;1909;-75
2021/11/23 21:12:07;;;;;;;;;;;1.30;99.90;;;-0.14;100.00;96500.03;10491121;28;1896;-75
2021/11/23 21:17:10;;;;;;;;;;;1.20;99.90;;;-0.11;100.00;96498.84;10467285;28;1893;-76
2021/11/23 21:22:14;;;;;;;;;;;1.20;99.90;;;-0.16;100.00;96498.59;10472432;28;1913;-70
2021/11/23 21:27:17;;;;;;;;;;;1.20;99.90;;;-0.20;100.00;96494.66;10466888;28;2265;-71
2021/11/23 21:32:20;;;;;;;;;;;1.10;99.90;;;-0.27;100.00;96498.06;10460255;28;1883;-71
2021/11/23 21:37:29;;;;;;;;;;;1.00;99.90;;;-0.34;100.00;96493.72;10453367;28;1921;-71
2021/11/23 21:47:48;;;;;;;;;;;0.90;99.90;;;-0.50;100.00;96499.25;10473320;28;1977;-70
2021/11/23 21:52:51;;;;;;;;;;;0.80;99.90;;;-0.51;100.00;96498.41;10468383;28;1849;-73
2021/11/23 21:57:54;;;;;;;;;;;0.80;99.90;;;-0.52;100.00;96495.97;10464070;28;1838;-73
2021/11/23 22:02:57;;;;;;;;;;;0.70;99.90;;;-0.52;100.00;96495.97;10461554;28;1788;-72
2021/11/23 22:08:00;;;;;;;;;;;0.70;99.90;;;-0.56;100.00;96493.72;10467469;28;1910;-72
2021/11/23 22:13:03;;;;;;;;;;;0.70;99.90;;;-0.62;100.00;96491.81;10458613;28;1940;-72
2021/11/23 22:18:06;;;;;;;;;;;0.70;99.90;;;-0.59;100.00;96495.88;10470175;28;1691;-72
2021/11/23 22:23:08;;;;;;;;;;;0.70;99.90;;;-0.59;100.00;96496.72;10472679;28;1985;-71
2021/11/23 22:28:11;;;;;;;;;;;0.70;99.90;;;-0.65;100.00;96494.00;10459240;28;1922;-73
2021/11/23 22:33:14;;;;;;;;;;;0.60;99.90;;;-0.63;100.00;96498.09;10465472;28;1894;-72
2021/11/23 22:38:17;;;;;;;;;;;0.60;99.90;;;-0.77;100.00;96487.56;10464475;28;1916;-71
2021/11/23 22:43:21;;;;;;;;;;;;;;;-0.86;100.00;96473.66;10462499;28;1861;-72
2021/11/23 22:48:24;;;;;;;;;;;0.40;99.90;;;-0.88;100.00;96476.47;10468084;28;1960;-72
2021/11/23 22:53:27;;;;;;;;;;;0.90;99.90;;;-0.87;100.00;96477.31;10463516;28;1756;-73
2021/11/23 22:58:30;;;;;;;;;;;0.50;99.90;;;-0.96;100.00;96467.84;10448603;28;1961;-72
2021/11/23 23:03:35;;;;;;;;;;;0.40;99.90;;;-0.96;100.00;96462.56;10452654;28;1913;-72
2021/11/23 23:08:38;;;;;;;;;;;0.30;99.90;;;-0.95;100.00;96456.31;10466319;28;1992;-72
2021/11/23 23:13:41;;;;;;;;;;;0.40;99.90;;;-0.97;100.00;96451.19;10461481;28;1921;-73
2021/11/23 23:18:44;;;;;;;;;;;0.30;99.90;;;-1.02;100.00;96444.81;10463714;28;1926;-73
2021/11/23 23:23:47;;;;;;;;;;;;;;;-1.10;100.00;96448.38;10464224;28;1491;-72
2021/11/23 23:28:58;;;;;;;;;;;;;;;-1.14;100.00;96445.31;10478459;28;1922;-71
2021/11/23 23:34:02;;;;;;;;;;;;;;;-1.15;100.00;96433.09;10474589;28;1783;-72
2021/11/23 23:39:05;;;;;;;;;;;;;;;-1.23;100.00;96429.75;10475449;28;1905;-73
2021/11/23 23:44:08;;;;;;;;;;;;;;;-1.19;100.00;96426.56;10466431;28;2216;-72